首页
METAR-TAF:

METAR-TAF

机场 :

贝尔格莱德, 塞尔维亚

貝爾格勒尼古拉·特斯拉機場

纬度: 44-49N, 经度: 020-17E, 海拔: 96米

当前天气观测

该预报发布于40分钟前的01:00 UTC
风速9节,风向
温度 4°C
湿度 48%
气压 1008 hPa
能见度10公里或以上
1500米以下无云,无积雨云

METAR: LYBE 190100Z 18009KT CAVOK 04/M06 Q1008 NOSIG

时间: 02:40 (01:40 UTC)

预报

该预报发布于2小时和40分钟前的23:00 UTC
预报有效从19日的 00点(UTC)到 19日的 24点(UTC)
风速8节,风向南转西南
能见度10公里或以上
散云层高于4000英尺
成为
从 19日的 15点(UTC)到 19日的 17点(UTC)
风速10节,风向北转东北
短暂存在
从 19日的 17点(UTC)到 19日的 24点(UTC)
能見度: 5000
多云层高于1300英尺
多云层高于3000英尺
小雨

TAF: LYBE 182300Z 1900/1924 20008KT 9999 SCT040 TX08/1913Z TN02/1906Z BECMG 1915/1917 02010KT TEMPO 1917/1924 5000 -RA BKN013 BKN030

超过4000个机场的气象观测和天气预报(METAR&TAF报告)。

可查询的气象台以黄色和红色小点在地图上表示。

将鼠标移到小点上方,可查看气象台名称。

然后点击查看天气观测和预报。

如需切换地图:点击带黑十字的绿色按钮放大地图;点击带横线的绿色按钮缩小地图;或者点击绿色箭头查看邻近地区的地图。


METAR-TAF: